JOHN F KENNEDY INTL

KJFK (JFK)
New York, New York
Towered

Vatsim Metar:
KJFK 271651Z 18008KT 10SM SCT040 SCT250 M03/M12 A3045 RMK AO2 SLP312 T10281122

No ATC Online

Traffic

Inbound:
Ident
Type
Name
ETA
Phase
JBU44
A21N
Ben Cook EGMC
Taxiing In
DAL517
B752
Marcos Tiburcio KJFK
18:02 Z
Descent
BAW1
CONC
1370960 RJBB
18:25 Z
Cruse
DAL422
A321
Martin Dahl ESSL
Boarding
EDW47
A346
Andreas Kuchar LOWW
19:55 Z
Cruse
AAL141
A20N
MAURICE ROMERO TTPP
21:32 Z
Cruse
DAL006
B752
Aristal Wong WMKK
21:08 Z
Cruse
JBU42
A20N
Aaron Albertson KROA
01:56 Z
Descent

Outbound:
Ident
Type
Name
Destination
Phase
DAL956
A319
RILEY KJFK
CYUL
Climb
BAW78NB
B77W
Paul Eddie EGPH
EGPH
Climb
DAL962
B739
Jon E KDTW
KDEN
Climb
JBU161
A320
Ernesto Martinez KMCO
KSMF
Climb